Time;durP1;ratioP1;P1;durP2;ratioP2;P2;SDS_P1;SDS_P2;PMS_P1;PMS_P2;Temp;Humidity;BMP_temperature;BMP_pressure;BME280_temperature;BME280_humidity;BME280_pressure;Samples;Min_cycle;Max_cycle;Signal;HPM_P1;HPM_P2
2020/12/27 00:00:32;;;;;;;1.53;1.43;;;1.80;99.90;;;;;;5072289;28;20208;-55
2020/12/27 00:02:58;;;;;;;1.20;1.20;;;1.80;99.90;;;;;;5072027;28;20208;-58
2020/12/27 00:05:23;;;;;;;1.60;1.50;;;1.80;99.90;;;;;;5072122;28;20189;-56
2020/12/27 00:07:49;;;;;;;1.50;1.43;;;1.80;99.90;;;;;;5071232;28;20216;-58
2020/12/27 00:10:14;;;;;;;2.20;1.53;;;1.90;99.90;;;;;;5072142;28;20169;-55
2020/12/27 00:12:40;;;;;;;2.30;2.10;;;1.80;99.90;;;;;;5071907;28;20177;-58
2020/12/27 00:15:05;;;;;;;1.70;1.60;;;1.80;99.90;;;;;;5072017;28;20189;-56
2020/12/27 00:17:31;;;;;;;2.17;2.07;;;1.80;99.90;;;;;;5071751;28;20175;-58
2020/12/27 00:19:57;;;;;;;2.17;2.07;;;1.80;99.90;;;;;;5071866;28;20169;-55
2020/12/27 00:22:23;;;;;;;2.13;2.03;;;1.80;99.90;;;;;;5071730;28;20200;-55
2020/12/27 00:24:49;;;;;;;1.57;1.47;;;1.80;99.90;;;;;;5071735;28;20184;-59
2020/12/27 00:27:15;;;;;;;4.00;2.30;;;1.80;99.90;;;;;;5071367;28;20584;-60
2020/12/27 00:29:41;;;;;;;1.90;1.80;;;1.80;99.90;;;;;;5071614;28;20165;-60
2020/12/27 00:32:06;;;;;;;2.10;2.00;;;1.80;99.90;;;;;;5071875;28;20170;-59
2020/12/27 00:34:33;;;;;;;2.23;2.03;;;1.80;99.90;;;;;;5071532;28;20241;-58
2020/12/27 00:36:59;;;;;;;2.05;1.95;;;1.80;99.90;;;;;;5071356;28;20211;-57
2020/12/27 00:39:26;;;;;;;2.45;2.25;;;1.80;99.90;;;;;;5071726;28;20177;-60
2020/12/27 00:41:57;;;;;;;2.30;2.20;;;1.80;99.90;;;;;;5071612;28;20197;-55
2020/12/27 00:44:22;;;;;;;2.00;1.88;;;1.80;99.90;;;;;;5071759;28;20192;-57
2020/12/27 00:46:49;;;;;;;1.73;1.63;;;1.80;99.90;;;;;;5071189;28;20247;-58
2020/12/27 00:49:16;;;;;;;2.00;1.90;;;1.90;99.90;;;;;;5071488;28;20166;-56
2020/12/27 00:51:41;;;;;;;2.43;1.30;;;1.90;99.90;;;;;;5071385;28;20264;-58
2020/12/27 00:54:07;;;;;;;1.97;1.87;;;1.90;99.90;;;;;;5071579;28;20493;-56
2020/12/27 00:56:33;;;;;;;4.07;2.00;;;1.90;99.90;;;;;;5071250;28;20161;-58
2020/12/27 00:58:58;;;;;;;1.93;1.83;;;1.90;99.90;;;;;;5071404;28;20625;-58
2020/12/27 01:01:24;;;;;;;2.07;1.97;;;2.00;99.90;;;;;;5071538;28;20543;-59
2020/12/27 01:03:49;;;;;;;1.80;1.70;;;2.00;99.90;;;;;;5073738;28;20166;-60
2020/12/27 01:06:21;;;;;;;1.80;1.70;;;2.00;99.90;;;;;;5075462;28;20517;-56
2020/12/27 01:08:47;;;;;;;1.45;1.45;;;2.00;99.90;;;;;;5074973;28;20542;-61
2020/12/27 01:11:13;;;;;;;2.03;1.93;;;2.00;99.90;;;;;;5075522;28;20166;-56
2020/12/27 01:13:39;;;;;;;1.87;1.80;;;2.00;99.90;;;;;;5075282;28;20166;-53
2020/12/27 01:16:09;;;;;;;1.60;1.50;;;2.00;99.90;;;;;;5075351;28;20193;-58
2020/12/27 01:18:35;;;;;;;1.45;1.45;;;2.00;99.90;;;;;;5074687;28;20810;-58
2020/12/27 01:21:00;;;;;;;1.40;1.40;;;2.00;99.90;;;;;;5075326;28;20170;-58
2020/12/27 01:23:26;;;;;;;2.10;2.00;;;2.00;99.90;;;;;;5075171;28;20220;-56
2020/12/27 01:25:51;;;;;;;1.80;1.70;;;2.00;99.90;;;;;;5074844;28;20217;-53
2020/12/27 01:28:17;;;;;;;1.43;1.33;;;2.00;99.90;;;;;;5074690;28;20584;-58
2020/12/27 01:30:44;;;;;;;1.30;1.20;;;2.00;99.90;;;;;;5073725;28;20187;-55
2020/12/27 01:33:09;;;;;;;1.30;1.30;;;2.00;99.90;;;;;;5075139;28;20161;-62
2020/12/27 01:35:35;;;;;;;1.10;1.10;;;1.90;99.90;;;;;;5074773;28;20269;-57
2020/12/27 01:38:01;;;;;;;1.33;1.30;;;1.90;99.90;;;;;;5074634;28;20170;-57
2020/12/27 01:40:27;;;;;;;1.60;1.50;;;1.90;99.90;;;;;;5074893;28;20168;-60
2020/12/27 01:42:57;;;;;;;1.52;1.52;;;1.90;99.90;;;;;;5074749;28;20498;-55
2020/12/27 01:45:23;;;;;;;1.83;1.20;;;1.90;99.90;;;;;;5074794;28;20190;-55
2020/12/27 01:47:51;;;;;;;1.52;1.48;;;1.90;99.90;;;;;;5073801;28;20173;-55
2020/12/27 01:50:17;;;;;;;1.70;1.60;;;1.80;99.90;;;;;;5074798;28;20165;-57
2020/12/27 01:52:43;;;;;;;1.42;1.33;;;1.80;99.90;;;;;;5074469;28;20570;-55
2020/12/27 01:55:09;;;;;;;1.20;1.20;;;1.80;99.90;;;;;;5074622;28;20258;-59
2020/12/27 01:57:53;;;;;;;1.45;1.45;;;1.80;99.90;;;;;;5073954;28;20664;-57
2020/12/27 02:00:19;;;;;;;1.67;1.58;;;1.80;99.90;;;;;;5074500;28;20172;-59
2020/12/27 02:02:44;;;;;;;1.40;1.40;;;1.80;99.90;;;;;;5074219;28;20204;-54
2020/12/27 02:05:11;;;;;;;2.87;1.67;;;1.70;99.90;;;;;;5074456;28;21125;-58
2020/12/27 02:07:37;;;;;;;1.10;1.10;;;1.70;99.90;;;;;;5073891;28;20170;-57
2020/12/27 02:10:02;;;;;;;1.23;1.23;;;1.70;99.90;;;;;;5074235;28;20185;-62
2020/12/27 02:12:28;;;;;;;1.80;1.70;;;1.70;99.90;;;;;;5074392;28;20399;-58
2020/12/27 02:14:54;;;;;;;1.77;1.67;;;1.70;99.90;;;;;;5073473;28;20687;-56
2020/12/27 02:17:20;;;;;;;1.50;1.40;;;1.70;99.90;;;;;;5073974;28;20248;-56
2020/12/27 02:19:45;;;;;;;1.10;1.10;;;1.70;99.90;;;;;;5073979;28;20924;-59
2020/12/27 02:22:11;;;;;;;1.90;1.80;;;1.70;99.90;;;;;;5074131;28;20282;-60
2020/12/27 02:24:36;;;;;;;1.00;1.00;;;1.70;99.90;;;;;;5073873;28;20186;-52
2020/12/27 02:27:04;;;;;;;1.43;1.40;;;1.70;99.90;;;;;;5073646;28;20611;-55
2020/12/27 02:29:32;;;;;;;1.60;1.60;;;1.70;99.90;;;;;;5073846;28;20161;-57
2020/12/27 02:31:58;;;;;;;1.48;1.38;;;1.70;99.90;;;;;;5072472;28;20173;-54
2020/12/27 02:34:23;;;;;;;1.10;1.10;;;1.70;99.90;;;;;;5073872;28;20193;-54
2020/12/27 02:36:50;;;;;;;1.73;1.63;;;1.80;99.90;;;;;;5073464;28;20213;-54
2020/12/27 02:39:17;;;;;;;1.30;1.30;;;1.80;99.90;;;;;;5073832;28;20660;-60
2020/12/27 02:41:43;;;;;;;1.38;1.27;;;1.80;99.90;;;;;;5073575;28;20189;-60
2020/12/27 02:44:09;;;;;;;1.27;1.27;;;1.80;99.90;;;;;;5073635;28;20227;-60
2020/12/27 02:46:35;;;;;;;1.58;1.50;;;1.70;99.90;;;;;;5073134;28;20206;-57
2020/12/27 02:49:01;;;;;;;1.45;1.42;;;1.70;99.90;;;;;;5073444;28;20160;-54
2020/12/27 02:51:28;;;;;;;1.70;1.60;;;1.70;99.90;;;;;;5073714;28;20169;-57
2020/12/27 02:53:54;;;;;;;1.30;1.30;;;1.60;99.90;;;;;;5073319;28;20165;-53
2020/12/27 02:56:22;;;;;;;1.48;1.42;;;1.60;99.90;;;;;;5073525;28;20161;-58
2020/12/27 02:58:48;;;;;;;1.65;1.55;;;1.60;99.90;;;;;;5072828;28;20176;-60
2020/12/27 03:01:15;;;;;;;1.30;1.30;;;1.60;99.90;;;;;;5073536;28;20625;-59
2020/12/27 03:03:41;;;;;;;1.00;1.00;;;1.70;99.90;;;;;;5073098;28;20196;-57
2020/12/27 03:06:06;;;;;;;1.20;1.20;;;1.70;99.90;;;;;;5073151;28;20236;-61
2020/12/27 03:08:32;;;;;;;1.37;1.37;;;1.70;99.90;;;;;;5072614;28;20664;-60
2020/12/27 03:10:58;;;;;;;1.20;1.20;;;1.70;99.90;;;;;;5073164;28;20626;-61
2020/12/27 03:13:24;;;;;;;1.30;1.30;;;1.70;99.90;;;;;;5073193;28;20185;-53
2020/12/27 03:15:51;;;;;;;1.30;1.23;;;1.70;99.90;;;;;;5072895;28;20187;-56
2020/12/27 03:18:18;;;;;;;1.42;1.20;;;1.70;99.90;;;;;;5072672;28;20168;-57
2020/12/27 03:20:44;;;;;;;1.10;1.10;;;1.70;99.90;;;;;;5073165;28;20669;-56
2020/12/27 03:23:10;;;;;;;1.00;1.00;;;1.80;99.90;;;;;;5072934;28;20199;-56
2020/12/27 03:25:35;;;;;;;1.00;1.00;;;1.80;99.90;;;;;;5071729;28;20440;-58
2020/12/27 03:28:01;;;;;;;1.40;1.40;;;1.80;99.90;;;;;;5072577;28;20419;-59
2020/12/27 03:30:26;;;;;;;1.20;1.20;;;1.70;99.90;;;;;;5072668;28;20199;-58
2020/12/27 03:32:52;;;;;;;0.97;0.97;;;1.70;99.90;;;;;;5072541;28;20172;-59
2020/12/27 03:35:17;;;;;;;1.20;1.20;;;1.70;99.90;;;;;;5073811;28;20200;-59
2020/12/27 03:37:43;;;;;;;1.03;1.03;;;1.80;99.90;;;;;;5072577;28;20187;-60
2020/12/27 03:40:09;;;;;;;1.10;1.10;;;1.70;99.90;;;;;;5072617;28;20172;-59
2020/12/27 03:42:34;;;;;;;1.17;1.17;;;1.70;99.90;;;;;;5072397;28;20670;-59
2020/12/27 03:45:00;;;;;;;1.00;1.00;;;1.70;99.90;;;;;;5073126;28;20200;-62
2020/12/27 03:47:26;;;;;;;1.30;1.30;;;1.70;99.90;;;;;;5072107;28;20172;-61
2020/12/27 03:49:51;;;;;;;1.10;1.10;;;1.70;99.90;;;;;;5072480;28;20962;-60
2020/12/27 03:52:17;;;;;;;1.00;1.00;;;1.70;99.90;;;;;;5072281;28;20177;-61
2020/12/27 03:54:43;;;;;;;1.13;1.13;;;1.70;99.90;;;;;;5072216;28;20707;-61
2020/12/27 03:57:09;;;;;;;2.07;1.97;;;1.80;99.90;;;;;;5071834;28;20242;-58
2020/12/27 03:59:34;;;;;;;1.30;1.30;;;1.80;99.90;;;;;;5072074;28;20191;-60
2020/12/27 04:02:00;;;;;;;0.90;0.90;;;1.80;99.90;;;;;;5071085;28;20493;-61
2020/12/27 04:04:25;;;;;;;1.10;1.10;;;1.80;99.90;;;;;;5071833;28;20193;-61
2020/12/27 04:06:51;;;;;;;1.00;1.00;;;1.90;99.90;;;;;;5071781;28;20218;-60
2020/12/27 04:09:17;;;;;;;1.30;1.30;;;1.90;99.90;;;;;;5070884;28;20301;-61
2020/12/27 04:11:42;;;;;;;1.03;1.03;;;1.90;99.90;;;;;;5072056;28;20173;-61
2020/12/27 04:14:08;;;;;;;0.80;0.80;;;1.90;99.90;;;;;;5071962;28;20195;-61
2020/12/27 04:16:34;;;;;;;0.90;0.90;;;1.90;99.90;;;;;;5071919;28;20524;-61
2020/12/27 04:18:59;;;;;;;1.43;1.40;;;1.90;99.90;;;;;;5071825;28;20175;-60
2020/12/27 04:21:25;;;;;;;1.00;1.00;;;1.90;99.90;;;;;;5071975;28;20165;-61
2020/12/27 04:23:50;;;;;;;1.37;1.27;;;1.90;99.90;;;;;;5071636;28;20179;-59
2020/12/27 04:26:16;;;;;;;0.90;0.90;;;1.90;99.90;;;;;;5072037;28;20164;-61
2020/12/27 04:28:43;;;;;;;0.90;0.70;;;1.90;99.90;;;;;;5071434;28;20166;-61
2020/12/27 04:31:20;;;;;;;0.80;0.80;;;1.90;99.90;;;;;;5071950;28;20460;-61
2020/12/27 04:33:47;;;;;;;1.00;1.00;;;2.00;99.90;;;;;;5071772;28;20165;-62
2020/12/27 04:36:16;;;;;;;0.80;0.80;;;2.00;99.90;;;;;;5071756;28;20240;-59
2020/12/27 04:38:41;;;;;;;1.80;0.93;;;2.00;99.90;;;;;;5071320;28;20172;-61
2020/12/27 04:41:07;;;;;;;0.90;0.90;;;2.00;99.90;;;;;;5071882;28;20164;-62
2020/12/27 04:43:36;;;;;;;1.07;1.07;;;2.00;99.90;;;;;;5071670;28;20208;-61
2020/12/27 04:46:04;;;;;;;1.08;1.08;;;2.00;99.90;;;;;;5071765;28;20187;-61
2020/12/27 04:48:31;;;;;;;0.98;0.98;;;2.00;99.90;;;;;;5071464;28;20172;-61
2020/12/27 04:51:03;;;;;;;0.90;0.90;;;2.00;99.90;;;;;;5071546;28;20552;-61
2020/12/27 04:53:28;;;;;;;1.00;1.00;;;2.10;99.90;;;;;;5071878;28;20169;-61
2020/12/27 04:55:56;;;;;;;1.03;1.03;;;2.00;99.90;;;;;;5071513;28;20298;-61
2020/12/27 04:58:22;;;;;;;1.00;1.00;;;2.00;99.90;;;;;;5071159;28;20209;-61
2020/12/27 05:00:49;;;;;;;1.00;1.00;;;2.00;99.90;;;;;;5071482;28;20174;-61
2020/12/27 05:03:15;;;;;;;0.85;0.85;;;2.10;99.90;;;;;;5071574;28;20202;-60
2020/12/27 05:05:40;;;;;;;1.00;1.00;;;2.10;99.90;;;;;;5071326;28;20656;-61
2020/12/27 05:08:06;;;;;;;0.93;0.93;;;2.10;99.90;;;;;;5071264;28;20168;-62
2020/12/27 05:10:38;;;;;;;0.80;0.80;;;2.10;99.90;;;;;;5071388;28;20206;-61
2020/12/27 05:13:03;;;;;;;0.82;0.82;;;2.10;99.90;;;;;;5071506;28;20182;-62
2020/12/27 05:15:29;;;;;;;0.80;0.80;;;2.10;99.90;;;;;;5071335;28;20188;-61
2020/12/27 05:17:55;;;;;;;0.70;0.70;;;2.20;99.90;;;;;;5071126;28;20198;-62
2020/12/27 05:20:21;;;;;;;0.65;0.65;;;2.20;99.90;;;;;;5071454;28;20541;-62
2020/12/27 05:22:47;;;;;;;0.80;0.80;;;2.20;99.90;;;;;;5071249;28;20195;-62
2020/12/27 05:25:14;;;;;;;0.60;0.60;;;2.10;99.90;;;;;;5071347;28;20412;-62
2020/12/27 05:27:42;;;;;;;0.70;0.70;;;2.10;99.90;;;;;;5070903;28;20198;-62
2020/12/27 05:30:08;;;;;;;0.85;0.80;;;2.20;99.90;;;;;;5071317;28;20693;-61
2020/12/27 05:32:35;;;;;;;0.90;0.90;;;2.20;99.90;;;;;;5071104;28;20168;-61
2020/12/27 05:35:00;;;;;;;0.80;0.80;;;2.20;99.90;;;;;;5071284;28;20431;-62
2020/12/27 05:37:27;;;;;;;0.90;0.90;;;2.30;99.90;;;;;;5070861;28;20408;-62
2020/12/27 05:39:53;;;;;;;0.90;0.90;;;2.30;99.90;;;;;;5071252;28;20407;-60
2020/12/27 05:42:25;;;;;;;1.13;1.13;;;2.30;99.90;;;;;;5071016;28;20545;-62
2020/12/27 05:44:51;;;;;;;1.30;1.30;;;2.30;99.90;;;;;;5071365;28;20724;-62
2020/12/27 05:47:18;;;;;;;1.10;1.10;;;2.40;99.90;;;;;;5070682;28;20483;-61
2020/12/27 05:49:44;;;;;;;1.10;1.10;;;2.40;99.90;;;;;;5073145;28;20458;-59
2020/12/27 05:52:16;;;;;;;0.90;0.90;;;2.40;99.90;;;;;;5074833;28;20925;-61
2020/12/27 05:54:46;;;;;;;0.93;0.93;;;2.50;99.90;;;;;;5074561;28;20185;-61
2020/12/27 05:57:14;;;;;;;0.73;0.73;;;2.50;99.90;;;;;;5074297;28;20416;-60
2020/12/27 05:59:43;;;;;;;0.80;0.80;;;2.50;99.90;;;;;;5074456;28;20404;-62
2020/12/27 06:02:36;;;;;;;0.90;0.90;;;2.50;99.90;;;;;;5074574;28;20866;-61
2020/12/27 06:05:07;;;;;;;0.90;0.90;;;2.50;99.90;;;;;;5074416;28;20273;-61
2020/12/27 06:07:35;;;;;;;0.73;0.73;;;2.50;99.90;;;;;;5074235;28;20415;-61
2020/12/27 06:10:16;;;;;;;0.70;0.70;;;2.60;99.90;;;;;;5074234;28;20219;-60
2020/12/27 06:12:57;;;;;;;0.87;0.87;;;2.50;99.90;;;;;;5074486;28;20815;-61
2020/12/27 06:15:28;;;;;;;0.70;0.70;;;2.60;99.90;;;;;;5074166;28;20429;-62
2020/12/27 06:17:54;;;;;;;0.90;0.90;;;2.60;99.90;;;;;;5074049;28;20462;-61
2020/12/27 06:20:21;;;;;;;0.90;0.90;;;2.60;99.90;;;;;;5074231;28;20225;-62
2020/12/27 06:22:49;;;;;;;1.00;1.00;;;2.60;99.90;;;;;;5074118;28;21157;-62
2020/12/27 06:25:16;;;;;;;0.90;0.90;;;2.60;99.90;;;;;;5073946;28;20790;-62
2020/12/27 06:27:42;;;;;;;0.90;0.90;;;2.60;99.90;;;;;;5073887;28;20400;-62
2020/12/27 06:30:11;;;;;;;0.80;0.80;;;2.60;99.90;;;;;;5073940;28;20412;-62
2020/12/27 06:32:44;;;;;;;0.70;0.70;;;2.50;99.90;;;;;;5074078;28;20758;-61
2020/12/27 06:35:10;;;;;;;0.70;0.70;;;2.50;99.90;;;;;;5073712;28;20431;-61
2020/12/27 06:37:40;;;;;;;0.90;0.90;;;2.50;99.90;;;;;;5073714;28;20921;-62
2020/12/27 06:40:06;;;;;;;0.93;0.93;;;2.50;99.90;;;;;;5073743;28;20500;-62
2020/12/27 06:42:31;;;;;;;0.80;0.80;;;2.50;99.90;;;;;;5073779;28;20890;-61
2020/12/27 06:44:57;;;;;;;1.90;1.83;;;2.60;99.90;;;;;;5073777;28;20190;-62
2020/12/27 06:47:48;;;;;;;0.70;0.70;;;2.60;99.90;;;;;;5073374;28;20177;-61
2020/12/27 06:50:16;;;;;;;0.90;0.90;;;2.60;99.90;;;;;;5073738;28;20558;-60
2020/12/27 06:52:42;;;;;;;0.97;0.97;;;2.60;99.90;;;;;;5073547;28;20413;-62
2020/12/27 06:55:07;;;;;;;0.80;0.70;;;2.60;99.90;;;;;;5073559;28;20425;-62
2020/12/27 06:57:45;;;;;;;0.53;0.53;;;2.60;99.90;;;;;;5073074;28;20197;-62
2020/12/27 07:00:25;;;;;;;0.83;0.83;;;2.60;99.90;;;;;;5073470;28;20540;-61
2020/12/27 07:03:10;;;;;;;0.80;0.80;;;2.70;99.90;;;;;;5073215;28;20479;-62
2020/12/27 07:05:38;;;;;;;0.60;0.60;;;2.60;99.90;;;;;;5073378;28;21011;-61
2020/12/27 07:08:05;;;;;;;0.70;0.70;;;2.70;99.90;;;;;;5072899;28;20401;-62
2020/12/27 07:10:33;;;;;;;0.70;0.70;;;2.70;99.90;;;;;;5073336;28;20439;-62
2020/12/27 07:13:08;;;;;;;0.70;0.70;;;2.70;99.90;;;;;;5073027;28;20963;-62
2020/12/27 07:15:34;;;;;;;0.83;0.83;;;2.70;99.90;;;;;;5073237;28;20785;-62
2020/12/27 07:18:07;;;;;;;0.70;0.70;;;2.80;99.90;;;;;;5072646;28;20409;-62
2020/12/27 07:20:34;;;;;;;1.00;1.00;;;2.80;99.90;;;;;;5073123;28;20454;-62
2020/12/27 07:23:00;;;;;;;0.80;0.80;;;2.80;99.90;;;;;;5072613;28;20551;-61
2020/12/27 07:25:29;;;;;;;0.80;0.80;;;2.80;99.90;;;;;;5072996;28;20512;-62
2020/12/27 07:27:57;;;;;;;0.80;0.80;;;2.80;99.90;;;;;;5072559;28;20167;-62
2020/12/27 07:30:27;;;;;;;0.80;0.80;;;2.80;99.90;;;;;;5072844;28;20405;-62
2020/12/27 07:32:52;;;;;;;0.77;0.77;;;2.90;99.90;;;;;;5072890;28;20789;-62
2020/12/27 07:35:22;;;;;;;0.80;0.80;;;2.80;99.90;;;;;;5072591;28;20421;-62
2020/12/27 07:37:59;;;;;;;0.80;0.80;;;2.80;99.90;;;;;;5072410;28;20561;-62
2020/12/27 07:40:30;;;;;;;0.77;0.77;;;2.80;99.90;;;;;;5072571;28;20412;-62
2020/12/27 07:42:56;;;;;;;1.17;1.07;;;2.80;99.90;;;;;;5072667;28;20548;-62
2020/12/27 07:45:22;;;;;;;0.63;0.63;;;2.80;99.90;;;;;;5072401;28;20512;-62
2020/12/27 07:47:47;;;;;;;0.67;0.67;;;2.80;99.90;;;;;;5072291;28;20639;-61
2020/12/27 07:50:14;;;;;;;0.60;0.60;;;2.80;99.90;;;;;;5072412;28;20178;-61
2020/12/27 07:53:00;;;;;;;0.70;0.70;;;2.80;99.90;;;;;;5072529;28;20189;-62
2020/12/27 07:55:39;;;;;;;0.60;0.60;;;2.80;99.90;;;;;;5071989;28;20441;-62
2020/12/27 07:58:06;;;;;;;0.63;0.63;;;2.80;99.90;;;;;;5072053;28;20437;-62
2020/12/27 08:00:36;;;;;;;0.80;0.80;;;2.80;99.90;;;;;;5072155;28;20412;-62
2020/12/27 08:03:09;;;;;;;0.60;0.60;;;2.80;99.90;;;;;;5072329;28;20449;-61
2020/12/27 08:05:39;;;;;;;0.70;0.70;;;2.80;99.90;;;;;;5072078;28;20431;-62
2020/12/27 08:08:12;;;;;;;0.60;0.60;;;2.90;99.90;;;;;;5071843;28;20398;-61
2020/12/27 08:10:39;;;;;;;0.60;0.60;;;2.90;99.90;;;;;;5072135;28;20411;-61
2020/12/27 08:13:06;;;;;;;0.60;0.60;;;2.90;99.90;;;;;;5071769;28;20177;-59
2020/12/27 08:15:36;;;;;;;0.70;0.70;;;2.90;99.90;;;;;;5072082;28;20432;-63
2020/12/27 08:18:04;;;;;;;0.63;0.63;;;2.90;99.90;;;;;;5071745;28;20902;-62
2020/12/27 08:20:51;;;;;;;0.57;0.57;;;2.90;99.90;;;;;;5072026;28;20420;-62
2020/12/27 08:23:18;;;;;;;0.60;0.60;;;2.90;99.90;;;;;;5071766;28;20850;-62
2020/12/27 08:25:44;;;;;;;0.57;0.57;;;2.90;99.90;;;;;;5071878;28;20921;-61
2020/12/27 08:28:15;;;;;;;0.80;0.80;;;3.00;99.90;;;;;;5071501;28;20410;-62
2020/12/27 08:30:41;;;;;;;0.60;0.60;;;2.90;99.90;;;;;;5071980;28;20810;-62
2020/12/27 08:33:14;;;;;;;0.50;0.50;;;2.90;99.90;;;;;;5071776;28;20416;-61
2020/12/27 08:35:43;;;;;;;0.63;0.63;;;2.90;99.90;;;;;;5071931;28;20187;-62
2020/12/27 08:38:21;;;;;;;0.63;0.63;;;3.00;99.90;;;;;;5071262;28;20962;-62
2020/12/27 08:40:57;;;;;;;0.70;0.70;;;2.90;99.90;;;;;;5071869;28;20416;-61
2020/12/27 08:43:49;;;;;;;0.60;0.60;;;2.90;99.90;;;;;;5071738;28;21003;-62
2020/12/27 08:46:18;;;;;;;0.77;0.77;;;3.00;99.90;;;;;;5080685;28;20459;-62
2020/12/27 08:48:53;;;;;;;0.60;0.60;;;2.90;99.90;;;;;;5071229;28;20970;-62
2020/12/27 08:51:20;;;;;;;0.60;0.60;;;3.00;99.90;;;;;;5071848;28;20411;-62
2020/12/27 08:53:46;;;;;;;0.60;0.60;;;3.00;99.90;;;;;;5071529;28;20413;-62
2020/12/27 08:56:12;;;;;;;0.60;0.60;;;3.00;99.90;;;;;;5071694;28;20189;-62
2020/12/27 08:58:38;;;;;;;0.70;0.70;;;3.10;99.90;;;;;;5071148;28;20520;-62
2020/12/27 09:01:23;;;;;;;0.63;0.63;;;3.00;99.90;;;;;;5071634;28;20976;-62
2020/12/27 09:03:49;;;;;;;0.60;0.60;;;3.10;99.90;;;;;;5071445;28;20667;-62
2020/12/27 09:06:15;;;;;;;0.50;0.50;;;3.10;99.90;;;;;;5071605;28;20546;-62
2020/12/27 09:08:40;;;;;;;7.10;0.90;;;3.10;99.90;;;;;;5071158;28;20408;-62
2020/12/27 09:11:06;;;;;;;0.70;0.70;;;3.00;99.90;;;;;;5071518;28;20409;-62
2020/12/27 09:13:39;;;;;;;0.50;0.40;;;3.00;99.90;;;;;;5071464;28;20262;-62
2020/12/27 09:16:05;;;;;;;0.50;0.50;;;3.10;99.90;;;;;;5071386;28;20214;-61
2020/12/27 09:18:33;;;;;;;0.67;0.67;;;3.10;99.90;;;;;;5071213;28;20456;-62
2020/12/27 09:21:06;;;;;;;1.43;0.57;;;3.10;99.90;;;;;;5071323;28;20175;-62
2020/12/27 09:23:32;;;;;;;0.50;0.50;;;3.10;99.90;;;;;;5071733;28;20790;-62
2020/12/27 09:26:09;;;;;;;0.60;0.60;;;3.00;99.90;;;;;;5074987;28;20786;-62
2020/12/27 09:28:36;;;;;;;0.50;0.50;;;3.00;99.90;;;;;;5074939;28;20743;-62
2020/12/27 09:31:11;;;;;;;0.60;0.60;;;3.00;99.90;;;;;;5075052;28;20395;-62
2020/12/27 09:33:43;;;;;;;0.60;0.60;;;2.90;99.90;;;;;;5075232;28;20490;-62
2020/12/27 09:36:10;;;;;;;0.70;0.70;;;2.90;99.90;;;;;;5074901;28;20798;-62
2020/12/27 09:38:42;;;;;;;0.70;0.70;;;2.80;99.90;;;;;;5074673;28;20860;-62
2020/12/27 09:41:16;;;;;;;0.80;0.80;;;2.80;99.90;;;;;;5074853;28;20780;-62
2020/12/27 09:43:45;;;;;;;0.90;0.90;;;2.80;99.90;;;;;;5074934;28;20459;-62
2020/12/27 09:46:11;;;;;;;0.50;0.50;;;2.80;99.90;;;;;;5075364;28;20987;-62
2020/12/27 09:48:36;;;;;;;0.67;0.67;;;2.80;99.90;;;;;;5074509;28;20408;-62
2020/12/27 09:51:15;;;;;;;0.70;0.70;;;2.80;99.90;;;;;;5074788;28;20644;-61
2020/12/27 09:53:41;;;;;;;0.50;0.50;;;2.80;99.90;;;;;;5074719;28;20261;-60
2020/12/27 09:56:06;;;;;;;0.70;0.70;;;2.80;99.90;;;;;;5074659;28;20501;-60
2020/12/27 09:58:32;;;;;;;0.60;0.60;;;2.80;99.90;;;;;;5074128;28;20191;-59
2020/12/27 10:00:57;;;;;;;0.70;0.70;;;2.80;99.90;;;;;;5074687;28;20212;-56
2020/12/27 10:03:23;;;;;;;0.80;0.80;;;2.70;99.90;;;;;;5074338;28;20278;-58
2020/12/27 10:05:48;;;;;;;0.60;0.60;;;2.70;99.90;;;;;;5074518;28;20203;-60
2020/12/27 10:08:14;;;;;;;0.80;0.60;;;2.70;99.90;;;;;;5074088;28;20162;-58
2020/12/27 10:10:39;;;;;;;0.97;0.93;;;2.70;99.90;;;;;;5074500;28;20163;-59
2020/12/27 10:13:05;;;;;;;0.70;0.70;;;2.70;99.90;;;;;;5074322;28;20176;-58
2020/12/27 10:15:30;;;;;;;0.70;0.70;;;2.70;99.90;;;;;;5074373;28;20691;-57
2020/12/27 10:17:56;;;;;;;0.80;0.80;;;2.60;99.90;;;;;;5073862;28;20808;-60
2020/12/27 10:20:21;;;;;;;0.70;0.70;;;2.60;99.90;;;;;;5074296;28;20646;-58
2020/12/27 10:22:47;;;;;;;0.70;0.70;;;2.60;99.90;;;;;;5074227;28;20198;-61
2020/12/27 10:25:13;;;;;;;0.80;0.80;;;2.60;99.90;;;;;;5074035;28;20239;-58
2020/12/27 10:27:38;;;;;;;0.70;0.70;;;2.50;99.90;;;;;;5073978;28;20176;-59
2020/12/27 10:30:05;;;;;;;0.70;0.70;;;2.50;99.90;;;;;;5073939;28;20197;-57
2020/12/27 10:32:30;;;;;;;0.70;0.70;;;2.50;99.90;;;;;;5074165;28;20166;-60
2020/12/27 10:34:56;;;;;;;0.80;0.80;;;2.50;99.90;;;;;;5073365;28;20248;-58
2020/12/27 10:37:22;;;;;;;0.80;0.80;;;2.50;99.90;;;;;;5073773;28;20578;-61
2020/12/27 10:39:49;;;;;;;0.90;0.90;;;2.50;99.90;;;;;;5073793;28;20171;-59
2020/12/27 10:42:15;;;;;;;0.70;0.70;;;2.50;99.90;;;;;;5073907;28;20251;-57
2020/12/27 10:44:40;;;;;;;0.80;0.80;;;2.50;99.90;;;;;;5073693;28;20422;-58
2020/12/27 10:47:09;;;;;;;0.80;0.80;;;2.50;99.90;;;;;;5073542;28;20200;-60
2020/12/27 10:49:35;;;;;;;0.70;0.70;;;2.60;99.90;;;;;;5072525;28;20594;-58
2020/12/27 10:52:00;;;;;;;0.70;0.70;;;2.60;99.90;;;;;;5073694;28;20442;-59
2020/12/27 10:54:26;;;;;;;0.90;0.90;;;2.50;99.90;;;;;;5073612;28;20197;-61
2020/12/27 10:56:51;;;;;;;0.87;0.87;;;2.50;99.90;;;;;;5073103;28;20526;-61
2020/12/27 10:59:17;;;;;;;0.63;0.63;;;2.50;99.90;;;;;;5073580;28;20263;-59
2020/12/27 11:01:47;;;;;;;0.87;0.87;;;2.50;99.90;;;;;;5073235;28;20178;-57
2020/12/27 11:04:13;;;;;;;0.83;0.83;;;2.50;99.90;;;;;;5073427;28;20198;-60
2020/12/27 11:06:38;;;;;;;0.70;0.70;;;2.50;99.90;;;;;;5072975;28;20401;-61
2020/12/27 11:09:04;;;;;;;0.77;0.77;;;2.50;99.90;;;;;;5073317;28;20459;-59
2020/12/27 11:11:30;;;;;;;0.60;0.60;;;2.50;99.90;;;;;;5073211;28;20200;-59
2020/12/27 11:13:55;;;;;;;0.77;0.77;;;2.60;99.90;;;;;;5073251;28;20826;-58
2020/12/27 11:16:21;;;;;;;0.80;0.80;;;2.50;99.90;;;;;;5073025;28;20172;-58
2020/12/27 11:18:46;;;;;;;0.80;0.80;;;2.60;99.90;;;;;;5072730;28;20175;-59
2020/12/27 11:21:12;;;;;;;0.80;0.80;;;2.60;99.90;;;;;;5073192;28;20178;-57
2020/12/27 11:23:38;;;;;;;0.60;0.60;;;2.60;99.90;;;;;;5072896;28;20285;-59
2020/12/27 11:26:04;;;;;;;0.70;0.70;;;2.60;99.90;;;;;;5072967;28;20277;-58
2020/12/27 11:28:29;;;;;;;0.90;0.90;;;2.60;99.90;;;;;;5072482;28;20168;-57
2020/12/27 11:30:55;;;;;;;0.67;0.67;;;2.50;99.90;;;;;;5072932;28;20411;-60
2020/12/27 11:33:20;;;;;;;0.80;0.80;;;2.50;99.90;;;;;;5072693;28;20179;-59
2020/12/27 11:35:47;;;;;;;0.80;0.80;;;2.50;99.90;;;;;;5072819;28;20194;-57
2020/12/27 11:38:12;;;;;;;0.70;0.70;;;2.40;99.90;;;;;;5072298;28;20166;-58
2020/12/27 11:40:38;;;;;;;0.93;0.93;;;2.30;99.90;;;;;;5072752;28;20431;-59
2020/12/27 11:43:03;;;;;;;0.80;0.80;;;2.40;99.90;;;;;;5072500;28;20194;-60
2020/12/27 11:45:29;;;;;;;0.77;0.77;;;2.30;99.90;;;;;;5072598;28;20197;-60
2020/12/27 11:47:54;;;;;;;0.77;0.77;;;2.30;99.90;;;;;;5071448;28;20222;-60
2020/12/27 11:50:20;;;;;;;0.67;0.67;;;2.30;99.90;;;;;;5072487;28;20177;-58
2020/12/27 11:52:45;;;;;;;0.60;0.60;;;2.30;99.90;;;;;;5072540;28;20189;-60
2020/12/27 11:55:11;;;;;;;0.60;0.60;;;2.20;99.90;;;;;;5072314;28;20193;-58
2020/12/27 11:57:36;;;;;;;1.00;1.00;;;2.10;99.90;;;;;;5072167;28;20227;-57
2020/12/27 12:00:04;;;;;;;0.70;0.70;;;2.10;99.90;;;;;;5072192;28;20181;-58
2020/12/27 12:02:30;;;;;;;0.70;0.70;;;2.10;99.90;;;;;;5072245;28;20205;-61
2020/12/27 12:04:56;;;;;;;0.90;0.90;;;2.10;99.90;;;;;;5072074;28;20243;-58
2020/12/27 12:07:22;;;;;;;0.70;0.70;;;2.10;99.90;;;;;;5072124;28;20200;-61
2020/12/27 12:09:47;;;;;;;0.80;0.80;;;2.10;99.90;;;;;;5072063;28;20530;-58
2020/12/27 12:12:13;;;;;;;0.90;0.90;;;2.10;99.90;;;;;;5072252;28;20184;-57
2020/12/27 12:14:39;;;;;;;1.00;1.00;;;2.10;99.90;;;;;;5071955;28;20193;-59
2020/12/27 12:17:04;;;;;;;1.13;1.13;;;2.10;99.90;;;;;;5071883;28;20181;-58
2020/12/27 12:19:30;;;;;;;1.03;1.00;;;2.20;99.90;;;;;;5072047;28;20297;-61
2020/12/27 12:21:55;;;;;;;0.70;0.70;;;2.10;99.90;;;;;;5071877;28;20660;-58
2020/12/27 12:24:24;;;;;;;0.70;0.70;;;2.10;99.90;;;;;;5072040;28;20752;-59
2020/12/27 12:26:50;;;;;;;0.60;0.60;;;2.10;99.90;;;;;;5071674;28;20244;-57
2020/12/27 12:29:16;;;;;;;1.77;0.77;;;2.00;99.90;;;;;;5071940;28;20255;-60
2020/12/27 12:31:42;;;;;;;0.80;0.80;;;1.90;99.90;;;;;;5071851;28;20399;-59
2020/12/27 12:34:08;;;;;;;0.60;0.60;;;2.00;99.90;;;;;;5071800;28;20177;-55
2020/12/27 12:36:34;;;;;;;0.70;0.70;;;1.90;99.90;;;;;;5071548;28;20235;-58
2020/12/27 12:39:00;;;;;;;0.68;0.68;;;1.90;99.90;;;;;;5071766;28;20407;-59
2020/12/27 12:41:27;;;;;;;0.67;0.67;;;1.90;99.90;;;;;;5071691;28;20166;-57
2020/12/27 12:43:54;;;;;;;0.80;0.80;;;2.00;99.90;;;;;;5071682;28;20455;-59
2020/12/27 12:46:21;;;;;;;0.85;0.85;;;1.90;99.90;;;;;;5071823;28;20769;-59
2020/12/27 12:48:48;;;;;;;0.68;0.68;;;1.90;99.90;;;;;;5071439;28;20160;-58
2020/12/27 12:51:14;;;;;;;0.80;0.80;;;1.80;99.90;;;;;;5071782;28;20169;-59
2020/12/27 12:53:40;;;;;;;0.70;0.70;;;1.80;99.90;;;;;;5065897;28;20939;-59
2020/12/27 12:56:11;;;;;;;0.60;0.60;;;1.90;99.90;;;;;;5067586;28;20202;-58
2020/12/27 12:58:37;;;;;;;0.70;0.70;;;1.80;99.90;;;;;;5053360;28;20937;-61